»·PEaware :: N11MA KSNA-KSNA

N11MA :: KSNA-KSNA

FLIGHT INFORMATION

Flight Status: Arrived
Operator: Privately registered:
United States
More flights under this callsign
Pilot: Mahmoud S. (33689)
Aircraft: CESSNA 172 SKYHAWK
(C172)
More flights by this aircraft type
Origin: KSNA John Wayne-Orange Co
United States
Destination: KSNA John Wayne-Orange Co
United States
More flights between these airports :: More routes between these airports
Route: SLI
File this flight plan on PilotEdge
Remarks: Not native English, Please speak slowly
Altitude:
(Current/Filed)
3,000ft
Speed:
(Current/Filed)
110kts
Departed: 22-Feb-21 01:28 PM
Arrived: 22-Feb-21 01:58 PM
Distance/Time
Traveled:
0nm/0:30
Distance/Time
To Go:
Arrived

Flight Plot

Page will automatically refresh every two minutes.


Map Options




Map Legend


Flown Route
Filed Route
Departure Airport
Arrival Airport
Navaid (VOR, NDB)
Fix

Horizontal Profiles

Position Reports

Time Latitude Longitude Heading Altitude Ground
Speed
22-Feb-21 13:22 33.681226 -117.866473 112 43ft 0kts
22-Feb-21 13:23 33.681226 -117.866473 112 43ft 0kts
22-Feb-21 13:24 33.681226 -117.866473 112 43ft 0kts
22-Feb-21 13:25 33.681226 -117.866473 112 43ft 0kts
22-Feb-21 13:26 33.680794 -117.865767 163 43ft 17kts
22-Feb-21 13:27 33.666379 -117.874746 212 453ft 76kts
22-Feb-21 13:28 33.652136 -117.893518 228 1230ft 77kts
22-Feb-21 13:29 33.637119 -117.916811 233 1776ft 103kts
22-Feb-21 13:30 33.619402 -117.944782 233 2377ft 105kts
22-Feb-21 13:31 33.611478 -117.972754 344 2904ft 107kts
22-Feb-21 13:32 33.643626 -117.967360 12 2975ft 123kts
22-Feb-21 13:33 33.677227 -117.958372 12 2977ft 121kts
22-Feb-21 13:34 33.709334 -117.949655 12 2979ft 116kts
22-Feb-21 13:35 33.740891 -117.941062 12 2980ft 116kts
22-Feb-21 13:36 33.772325 -117.932495 12 2990ft 115kts
22-Feb-21 13:37 33.803703 -117.923965 12 2989ft 116kts
22-Feb-21 13:38 33.835311 -117.915362 12 2980ft 116kts
22-Feb-21 13:39 33.861921 -117.896791 51 2980ft 116kts
22-Feb-21 13:40 33.881572 -117.865986 51 2980ft 116kts
22-Feb-21 13:41 33.901322 -117.835228 51 2980ft 116kts
22-Feb-21 13:42 33.921071 -117.804454 51 2959ft 117kts
22-Feb-21 13:44 33.940695 -117.773781 51 2965ft 115kts
22-Feb-21 13:45 33.959985 -117.743537 51 2971ft 115kts
22-Feb-21 13:46 33.979581 -117.712798 51 2969ft 115kts
22-Feb-21 13:47 33.990849 -117.680678 141 2966ft 119kts
22-Feb-21 13:48 33.959096 -117.689259 202 2970ft 120kts
22-Feb-21 13:49 33.929396 -117.707987 207 2967ft 120kts
22-Feb-21 13:50 33.899639 -117.726819 208 2966ft 120kts
22-Feb-21 13:51 33.870119 -117.745567 208 2980ft 120kts
22-Feb-21 13:52 33.840401 -117.764434 208 2980ft 120kts
22-Feb-21 13:53 33.811562 -117.782755 208 2905ft 125kts
22-Feb-21 13:54 33.779176 -117.803308 207 2195ft 134kts
22-Feb-21 13:55 33.747274 -117.823516 207 1503ft 125kts
22-Feb-21 13:56 33.716716 -117.842855 207 848ft 122kts
22-Feb-21 13:57 33.691809 -117.858620 208 307ft 75kts
22-Feb-21 13:58 33.676362 -117.868432 212 55ft 34kts
22-Feb-21 13:59 33.675992 -117.869844 298 56ft 0kts
22-Feb-21 14:00 33.676649 -117.870586 301 54ft 0kts
22-Feb-21 14:01 33.676649 -117.870586 301 54ft 0kts
22-Feb-21 14:02 33.676649 -117.870586 301 54ft 0kts
22-Feb-21 14:03 33.676649 -117.870586 301 54ft 0kts
22-Feb-21 14:04 33.676649 -117.870586 301 54ft 0kts
22-Feb-21 14:05 33.676649 -117.870586 301 54ft 0kts
22-Feb-21 14:06 33.676649 -117.870586 301 54ft 0kts
22-Feb-21 14:06 33.676649 -117.870586 301 54ft 0kts
22-Feb-21 14:08 33.676649 -117.870586 301 54ft 0kts
22-Feb-21 14:09 33.676649 -117.870586 301 54ft 0kts
22-Feb-21 14:09 33.676649 -117.870586 301 54ft 0kts
22-Feb-21 14:11 33.676649 -117.870586 301 54ft 0kts
22-Feb-21 14:11 33.676649 -117.870586 301 54ft 0kts

Navigation Log

Ident Type
Flight plan parsing failed, navigation log unavailable